WetterOnline ( https://www.wetteronline.de )

Wetter aktuell Lützow

Aktuelles Wetter: Schwerin (68m)

6-stündlich | Neueste Meldungen
Ortszeit Temperatur Wetter
So, 29.11. 19:00 2.7° C bedeckt
So, 29.11. 13:00 3.4° C leichter Regen
So, 29.11. 7:00 3.0° C bedeckt
So, 29.11. 1:00 3.1° C Regen
Sa, 28.11. 19:00 3.8° C bedeckt
Sa, 28.11. 13:00 3.0° C bedeckt
Sa, 28.11. 7:00 -2.5° C Nebel
Sa, 28.11. 1:00 -0.3° C Nebel
Ortszeit Temperatur Wetter
Mo, 30.11. 0:00 2.0° C Sprühregen
So, 29.11. 23:50 2.0° C Sprühregen
So, 29.11. 23:40 2.0° C Sprühregen
So, 29.11. 23:30 2.0° C Sprühregen
So, 29.11. 23:20 2.0° C Sprühregen
So, 29.11. 23:10 2.1° C Sprühregen
So, 29.11. 23:00 2.0° C leichter Regen
So, 29.11. 22:30 2.1° C Sprühregen
So, 29.11. 22:00 2.6° C bedeckt
So, 29.11. 21:30 2.6° C bedeckt
So, 29.11. 21:00 2.6° C bedeckt
Ortszeit Relative Feuchte Sichtweite
So, 29.11. 19:00 85% 50 km
So, 29.11. 13:00 92% 9 km
So, 29.11. 7:00 92% 29 km
So, 29.11. 1:00 88% 55 km
Sa, 28.11. 19:00 77% 60 km
Sa, 28.11. 13:00 89% 45 km
Sa, 28.11. 7:00 98% 0.5 km
Sa, 28.11. 1:00 100% 0.3 km
Ortszeit Relative Feuchte Sichtweite
Mo, 30.11. 0:00 90% 21 km
So, 29.11. 23:50 90% -
So, 29.11. 23:40 90% -
So, 29.11. 23:30 90% 22 km
So, 29.11. 23:20 90% -
So, 29.11. 23:10 89% -
So, 29.11. 23:00 90% 19 km
So, 29.11. 22:30 87% 26 km
So, 29.11. 22:00 81% 50 km
So, 29.11. 21:30 84% 60 km
So, 29.11. 21:00 82% 60 km
Ortszeit Niederschlagsmenge Niederschlagsart
So, 29.11. 19:00 0.4 l/m2 in 12 Std. Regen
So, 29.11. 13:00 0.3 l/m2 in 6 Std. Regen
So, 29.11. 7:00 0.1 l/m2 in 12 Std. Regen
So, 29.11. 1:00 0.1 l/m2 in 6 Std. Regen
Sa, 28.11. 19:00 0.0 l/m2 in 12 Std. -
Sa, 28.11. 13:00 0.0 l/m2 in 6 Std. -
Sa, 28.11. 7:00 0.0 l/m2 in 12 Std. -
Sa, 28.11. 1:00 0.0 l/m2 in 6 Std. -
Ortszeit Niederschlagsmenge Niederschlagsart
Mo, 30.11. 0:00 0.1 l/m2 in 1 Std. Schnee, Regen
So, 29.11. 23:50 keine Meldung -
So, 29.11. 23:40 keine Meldung -
So, 29.11. 23:30 0.1 l/m2 in 1 Std. -
So, 29.11. 23:20 keine Meldung -
So, 29.11. 23:10 keine Meldung -
So, 29.11. 23:00 0.1 l/m2 in 1 Std. Schnee, Regen
So, 29.11. 22:30 0.1 l/m2 in 1 Std. -
So, 29.11. 22:00 0.0 l/m2 in 1 Std. -
So, 29.11. 21:30 0.0 l/m2 in 1 Std. -
So, 29.11. 21:00 0.0 l/m2 in 1 Std. -
Ortszeit Stärke Spitze Richtung
km/h Bft. km/h Grad Sektor
So, 29.11. 19:00 7 2 20 300° NW
So, 29.11. 13:00 7 2 22 20° N
So, 29.11. 7:00 7 2 14 340° N
So, 29.11. 1:00 6 1 19 360° N
Sa, 28.11. 19:00 6 1 20 90° O
Sa, 28.11. 13:00 7 2 22 120° SO
Sa, 28.11. 7:00 6 1 11 210° SW
Sa, 28.11. 1:00 0 0 11 - -
Ortszeit Stärke Spitze Richtung
km/h Bft. km/h Grad Sektor
Mo, 30.11. 0:00 7 2 14 290° W
So, 29.11. 23:50 7 2 - 290° W
So, 29.11. 23:40 7 2 - 290° W
So, 29.11. 23:30 7 2 14 310° NW
So, 29.11. 23:20 7 2 - 310° NW
So, 29.11. 23:10 7 2 - 310° NW
So, 29.11. 23:00 7 2 17 290° W
So, 29.11. 22:30 9 2 17 310° NW
So, 29.11. 22:00 13 3 17 260° W
So, 29.11. 21:30 7 2 14 260° W
So, 29.11. 21:00 7 2 14 280° W
Ortszeit Untergrenze Bedeckung Gattung
total tief tief mittel hoch
So, 29.11. 19:00 540 m 8/8 8/8 - - -
So, 29.11. 13:00 240 m 7/8 7/8 - - -
So, 29.11. 7:00 1050 m 8/8 8/8 - - -
So, 29.11. 1:00 690 m 8/8 8/8 - - -
Sa, 28.11. 19:00 690 m 8/8 8/8 - - -
Sa, 28.11. 13:00 510 m 8/8 8/8 - - -
Sa, 28.11. 7:00 <30 m 8/8 0/8 - - -
Sa, 28.11. 1:00 <30 m 8/8 0/8 - - -
Ortszeit Bedeckungsgrad in Achtel und Wolkenuntergrenze
Mo, 30.11. 0:00 5(510m) 7(810m)
So, 29.11. 23:50 5(510m) 7(810m)
So, 29.11. 23:40 7(510m) 7(630m) 7(900m)
So, 29.11. 23:30 8(450m) 7(660m)
So, 29.11. 23:20 8(450m)
So, 29.11. 23:10 7(390m) 8(540m)
So, 29.11. 23:00 4(360m) 6(480m) 8(660m)
So, 29.11. 22:30 1(390m) 8(630m)
So, 29.11. 22:00 8(600m)
So, 29.11. 21:30 8(600m)
So, 29.11. 21:00 8(540m)
Ortszeit Luftdruck NN (hPa) Tendenz (hPa in 3 Std.)
So, 29.11. 19:00 1027 0,0
So, 29.11. 13:00 1028 - 0,4
So, 29.11. 7:00 1028 - 0,1
So, 29.11. 1:00 1028 + 0,2
Sa, 28.11. 19:00 1028 + 0,9
Sa, 28.11. 13:00 1026 + 0,5
Sa, 28.11. 7:00 1025 + 0,5
Sa, 28.11. 1:00 1024 + 0,4
Ortszeit Luftdruck NN (hPa) Tendenz (hPa in 3 Std.)
Mo, 30.11. 0:00 1027 - 0,6
So, 29.11. 23:50 1027 keine Meldung
So, 29.11. 23:40 1027 keine Meldung
So, 29.11. 23:30 1027 - 0,5
So, 29.11. 23:20 1027 keine Meldung
So, 29.11. 23:10 1027 keine Meldung
So, 29.11. 23:00 1027 - 0,4
So, 29.11. 22:30 1027 - 0,4
So, 29.11. 22:00 1027 - 0,4
So, 29.11. 21:30 1027 - 0,2
So, 29.11. 21:00 1027 + 0,1
Ortszeit Schneehöhe (cm)
So, 29.11. 19:00 0
So, 29.11. 13:00 0
So, 29.11. 7:00 0
So, 29.11. 1:00 0
Sa, 28.11. 19:00 0
Sa, 28.11. 13:00 0
Sa, 28.11. 7:00 0
Sa, 28.11. 1:00 0
Ortszeit Schneehöhe (cm)
Mo, 30.11. 0:00 0
So, 29.11. 23:50 0
So, 29.11. 23:40 0
So, 29.11. 23:30 0
So, 29.11. 23:20 0
So, 29.11. 23:10 0
So, 29.11. 23:00 0
So, 29.11. 22:30 0
So, 29.11. 22:00 0
So, 29.11. 21:30 0
So, 29.11. 21:00 0
Link zu dieser Seite / Seite empfehlen

Das Wetter in ...